Kanab, UT (84741)

10:30 PM MDT on September 04, 2015 (GMT -0600)
RAWS | | Change Station
CLOSE
Current Station
Personal Weather Station
Location: Canyon Point, UT
Elevation: 5846 ft
Nearby Weather Stations

Elev 5846 ft 37.14 °N, 112.45 °W | Updated 59 minutes ago

Clear
Clear
67 °F
Feels Like 67 °F
N
3
Wind Variable Wind from SW
Gusts 9.0 mph

Today
High -- | Low -- °F
--% Chance of Precip.
Yesterday
High -- | Low -- °F
Precip. -- in
7:01 AM 7:52 PM
Waning Gibbous, 52% visible
Pressure 29.73 in
Visibility 10.0 miles
Clouds Mostly Cloudy 11000 ft
Dew Point 41 °F
Humidity 39%
Rainfall in
Snow Depth Not available.
UV 0 out of 12
Pollen 7.90 out of 12
Air Quality Not available.
Flu Activity Not available.
METAR KPGA 050353Z AUTO 19009KT 10SM BKN110 25/09 A2992 RMK AO2 SLP068 T02500089 TSNO
Pressure 29.73 in
Visibility 10.0 miles
Clouds Mostly Cloudy 11000 ft
Dew Point 41 °F
Humidity 39%
Rainfall in
Snow Depth Not available.
UV 0 out of 12
Pollen 7.90 out of 12
Air Quality Not available.
Flu Activity Not available.
METAR KPGA 050353Z AUTO 19009KT 10SM BKN110 25/09 A2992 RMK AO2 SLP068 T02500089 TSNO
Nowcast | as of 8:40 PM MDT on September 4, 2015

Rain showers and thunderstorms were widely scattered across parts of southern Utah this evening. At 830 PM..the strongest thunderstorms were scattered to the east of Hanksville. Gusty wind...dangerous lightning...and brief heavy rain can be expected with any thunderstorm. The rain showers and thunderstorms were moving northeast and are expected to slowly diminish through the evening hours.

×

10-Day Weather Forecast

×

Almanac

Astronomy

Sep. 04, 2015 Rise Set
Actual Time
Civil Twilight
Nautical Twilight
Astronomical Twilight
Moon
Length of Visible Light
Length of Day
Tomorrow will be .
, % of the Moon is Illuminated

Today's Extremes

State Highs State Lows

Community

WunderPhotos

Upload Photos

1,852,425 photos uploaded!

WunderBlogs® & News

Nearby

Air Quality

  Air Quality AQ Index Pollutant
Not available.

Snow Depth

Station Depth Elevation

Earthquake Activity

City Distance Mag. Time & Date
Minimum magnitude displayed is 2.5.

Coastal Water Temperatures

Place Temperature

Stations

Nearby Weather Stations

Station Location Temp. Windchill Dew Point Humidity Wind Precip. Elev Updated Type